BAW05LS EGKK-EIDW
Flight info
| Callsign | BAW05LS |
|---|---|
| Flight time | N/A |
| Altitude | 34000 |
| Route | IMVUR N63 VOUGA N14 BIBPE DCT OKTAD DCT MEDOG DCT KRAGY DCT PEMOB M17 VATRY VATRY3R |
| Aircraft | A20N/M-SDE2E3FGHIRWXY/LB1 |
Departure
| Time | 2026-05-04 12:27 |
|---|---|
| Airport | London Gatwick Airport (EGKK) |
Arrival
| Time | N/A |
|---|---|
| Airport | Dublin Airport (EIDW) |
| Time | Latitude | Longitude | Altitude | Speed | Heading |
|---|---|---|---|---|---|
| 2026-05-04 11:51 | 51.15507 | -0.16783 | 195 ft | 0 kts | 347° |
| 2026-05-04 12:02 | 51.15492 | -0.16776 | 208 ft | 2 kts | 339° |
| 2026-05-04 12:03 | 51.15476 | -0.16765 | 211 ft | 2 kts | 330° |
| 2026-05-04 12:03 | 51.15463 | -0.16750 | 213 ft | 2 kts | 315° |
| 2026-05-04 12:03 | 51.15453 | -0.16730 | 211 ft | 2 kts | 295° |
| 2026-05-04 12:03 | 51.15448 | -0.16704 | 215 ft | 2 kts | 274° |
| 2026-05-04 12:04 | 51.15449 | -0.16678 | 209 ft | 2 kts | 259° |
| 2026-05-04 12:04 | 51.15450 | -0.16666 | 212 ft | 0 kts | 256° |
| 2026-05-04 12:04 | 51.15450 | -0.16667 | 212 ft | 0 kts | 256° |
| 2026-05-04 12:06 | 51.15446 | -0.16693 | 214 ft | 6 kts | 259° |
| 2026-05-04 12:06 | 51.15453 | -0.16796 | 214 ft | 12 kts | 266° |
| 2026-05-04 12:06 | 51.15436 | -0.16923 | 204 ft | 13 kts | 257° |
| 2026-05-04 12:06 | 51.15423 | -0.17017 | 205 ft | 9 kts | 257° |
| 2026-05-04 12:07 | 51.15397 | -0.17155 | 213 ft | 15 kts | 246° |
| 2026-05-04 12:07 | 51.15370 | -0.17283 | 209 ft | 0 kts | 252° |
| 2026-05-04 12:07 | 51.15367 | -0.17297 | 212 ft | 5 kts | 252° |
| 2026-05-04 12:07 | 51.15349 | -0.17358 | 206 ft | 1 kts | 224° |
| 2026-05-04 12:08 | 51.15313 | -0.17393 | 212 ft | 11 kts | 223° |
| 2026-05-04 12:08 | 51.15292 | -0.17524 | 204 ft | 6 kts | 262° |
| 2026-05-04 12:08 | 51.15276 | -0.17638 | 204 ft | 15 kts | 257° |
| 2026-05-04 12:08 | 51.15248 | -0.17849 | 205 ft | 23 kts | 259° |
| 2026-05-04 12:09 | 51.15222 | -0.18036 | 207 ft | 0 kts | 257° |
| 2026-05-04 12:09 | 51.15217 | -0.18069 | 207 ft | 7 kts | 258° |
| 2026-05-04 12:09 | 51.15196 | -0.18186 | 215 ft | 13 kts | 241° |
| 2026-05-04 12:09 | 51.15173 | -0.18205 | 214 ft | 6 kts | 199° |
| 2026-05-04 12:10 | 51.15113 | -0.18249 | 212 ft | 14 kts | 232° |
| 2026-05-04 12:10 | 51.15082 | -0.18439 | 212 ft | 22 kts | 257° |
| 2026-05-04 12:10 | 51.15042 | -0.18719 | 212 ft | 29 kts | 256° |
| 2026-05-04 12:10 | 51.14995 | -0.19057 | 204 ft | 34 kts | 258° |
| 2026-05-04 12:11 | 51.14943 | -0.19429 | 211 ft | 33 kts | 257° |
| 2026-05-04 12:11 | 51.14900 | -0.19750 | 211 ft | 26 kts | 257° |
| 2026-05-04 12:11 | 51.14859 | -0.20040 | 205 ft | 25 kts | 258° |
| 2026-05-04 12:11 | 51.14826 | -0.20284 | 213 ft | 19 kts | 257° |
| 2026-05-04 12:12 | 51.14804 | -0.20441 | 208 ft | 14 kts | 257° |
| 2026-05-04 12:12 | 51.14782 | -0.20599 | 208 ft | 16 kts | 259° |
| 2026-05-04 12:12 | 51.14766 | -0.20717 | 209 ft | 5 kts | 257° |
| 2026-05-04 12:12 | 51.14765 | -0.20725 | 209 ft | 0 kts | 257° |
| 2026-05-04 12:14 | 51.14740 | -0.20903 | 215 ft | 1 kts | 257° |
| 2026-05-04 12:15 | 51.14735 | -0.20945 | 208 ft | 8 kts | 258° |
| 2026-05-04 12:15 | 51.14727 | -0.20999 | 211 ft | 0 kts | 257° |
| 2026-05-04 12:15 | 51.14727 | -0.21002 | 208 ft | 0 kts | 257° |
| 2026-05-04 12:16 | 51.14722 | -0.21034 | 214 ft | 7 kts | 257° |
| 2026-05-04 12:16 | 51.14712 | -0.21104 | 210 ft | 6 kts | 257° |
| 2026-05-04 12:16 | 51.14710 | -0.21123 | 211 ft | 2 kts | 257° |
| 2026-05-04 12:17 | 51.14710 | -0.21124 | 211 ft | 0 kts | 257° |
| 2026-05-04 12:18 | 51.14708 | -0.21135 | 208 ft | 4 kts | 257° |
| 2026-05-04 12:19 | 51.14699 | -0.21200 | 205 ft | 0 kts | 258° |
| 2026-05-04 12:19 | 51.14694 | -0.21240 | 211 ft | 5 kts | 258° |
| 2026-05-04 12:19 | 51.14691 | -0.21258 | 207 ft | 0 kts | 258° |
| 2026-05-04 12:21 | 51.14691 | -0.21262 | 208 ft | 0 kts | 258° |
| 2026-05-04 12:21 | 51.14687 | -0.21281 | 208 ft | 0 kts | 252° |
| 2026-05-04 12:24 | 51.14683 | -0.21302 | 211 ft | 8 kts | 248° |
| 2026-05-04 12:24 | 51.14649 | -0.21338 | 207 ft | 5 kts | 188° |
| 2026-05-04 12:24 | 51.14622 | -0.21331 | 207 ft | 2 kts | 166° |
| 2026-05-04 12:24 | 51.14620 | -0.21331 | 208 ft | 0 kts | 168° |
| 2026-05-04 12:26 | 51.14619 | -0.21330 | 208 ft | 1 kts | 168° |
| 2026-05-04 12:26 | 51.14584 | -0.21318 | 215 ft | 10 kts | 165° |
| 2026-05-04 12:26 | 51.14520 | -0.21214 | 210 ft | 17 kts | 103° |
| 2026-05-04 12:26 | 51.14524 | -0.21143 | 206 ft | 2 kts | 79° |
| 2026-05-04 12:27 | 51.14582 | -0.20727 | 214 ft | 85 kts | 76° |
| 2026-05-04 12:27 | 51.14768 | -0.19397 | 212 ft | 160 kts | 77° |
| 2026-05-04 12:27 | 51.15008 | -0.17619 | 984 ft | 166 kts | 78° |
| 2026-05-04 12:27 | 51.15256 | -0.15748 | 1772 ft | 179 kts | 77° |
| 2026-05-04 12:28 | 51.15549 | -0.13682 | 2523 ft | 202 kts | 77° |
| 2026-05-04 12:28 | 51.15877 | -0.11367 | 2821 ft | 228 kts | 77° |
| 2026-05-04 12:28 | 51.16224 | -0.08839 | 2967 ft | 233 kts | 77° |
| 2026-05-04 12:28 | 51.16907 | -0.06534 | 2986 ft | 231 kts | 47° |
| 2026-05-04 12:29 | 51.18240 | -0.05135 | 2972 ft | 231 kts | 15° |
| 2026-05-04 12:29 | 51.19818 | -0.05078 | 2989 ft | 231 kts | 348° |
| 2026-05-04 12:29 | 51.21345 | -0.05874 | 3001 ft | 232 kts | 326° |
| 2026-05-04 12:29 | 51.22409 | -0.07782 | 3387 ft | 234 kts | 294° |
| 2026-05-04 12:30 | 51.22679 | -0.10311 | 4330 ft | 233 kts | 262° |
| 2026-05-04 12:30 | 51.22380 | -0.12875 | 5340 ft | 242 kts | 259° |
| 2026-05-04 12:30 | 51.22059 | -0.15643 | 5980 ft | 264 kts | 259° |
| 2026-05-04 12:30 | 51.21727 | -0.18583 | 6623 ft | 273 kts | 259° |
| 2026-05-04 12:31 | 51.21388 | -0.21583 | 7118 ft | 278 kts | 259° |
| 2026-05-04 12:31 | 51.21042 | -0.24626 | 8066 ft | 279 kts | 259° |
| 2026-05-04 12:31 | 51.20691 | -0.27688 | 8595 ft | 282 kts | 259° |
| 2026-05-04 12:31 | 51.20358 | -0.30581 | 8833 ft | 283 kts | 259° |
| 2026-05-04 12:32 | 51.19997 | -0.33704 | 8975 ft | 283 kts | 259° |
| 2026-05-04 12:32 | 51.19617 | -0.39863 | 9001 ft | 283 kts | 283° |
| 2026-05-04 12:32 | 51.20468 | -0.42714 | 9003 ft | 284 kts | 309° |
| 2026-05-04 12:33 | 51.21913 | -0.44818 | 9019 ft | 285 kts | 321° |
| 2026-05-04 12:33 | 51.23454 | -0.46800 | 9236 ft | 288 kts | 321° |
| 2026-05-04 12:33 | 51.25025 | -0.48823 | 10091 ft | 289 kts | 321° |
| 2026-05-04 12:33 | 51.26625 | -0.50882 | 10848 ft | 304 kts | 321° |
| 2026-05-04 12:34 | 51.28334 | -0.53086 | 11236 ft | 328 kts | 321° |
| 2026-05-04 12:34 | 51.30146 | -0.55425 | 11837 ft | 341 kts | 321° |
| 2026-05-04 12:34 | 51.31832 | -0.58108 | 12705 ft | 344 kts | 304° |
| 2026-05-04 12:34 | 51.33044 | -0.61275 | 13443 ft | 349 kts | 300° |
| 2026-05-04 12:35 | 51.34251 | -0.64673 | 13806 ft | 352 kts | 299° |
| 2026-05-04 12:35 | 51.35452 | -0.68100 | 13965 ft | 353 kts | 299° |
| 2026-05-04 12:35 | 51.36665 | -0.71538 | 13996 ft | 353 kts | 299° |
| 2026-05-04 12:35 | 51.37876 | -0.74944 | 13996 ft | 353 kts | 299° |
| 2026-05-04 12:36 | 51.39035 | -0.78187 | 13993 ft | 353 kts | 300° |
| 2026-05-04 12:36 | 51.40257 | -0.81600 | 13998 ft | 353 kts | 300° |
| 2026-05-04 12:36 | 51.41474 | -0.85000 | 14006 ft | 353 kts | 300° |
| 2026-05-04 12:36 | 51.42705 | -0.88441 | 14287 ft | 357 kts | 300° |